createdAt,value
2018-07-17T00:02:10.529Z,0.57
2018-07-17T00:04:38.792Z,0.50
2018-07-17T00:07:07.054Z,0.50
2018-07-17T00:09:35.306Z,0.60
2018-07-17T00:12:03.488Z,0.60
2018-07-17T00:14:31.729Z,0.60
2018-07-17T00:16:59.977Z,0.50
2018-07-17T00:19:28.229Z,0.50
2018-07-17T00:21:56.446Z,0.60
2018-07-17T00:24:24.655Z,0.50
2018-07-17T00:26:53.705Z,0.57
2018-07-17T00:29:21.899Z,0.50
2018-07-17T00:31:50.128Z,0.60
2018-07-17T00:34:18.344Z,0.60
2018-07-17T00:36:46.585Z,0.60
2018-07-17T00:39:14.836Z,0.60
2018-07-17T00:41:43.848Z,0.60
2018-07-17T00:44:12.098Z,0.60
2018-07-17T00:46:40.345Z,0.60
2018-07-17T00:49:08.539Z,0.60
2018-07-17T00:51:37.535Z,0.60
2018-07-17T00:54:06.559Z,0.60
2018-07-17T00:56:34.769Z,0.50
2018-07-17T00:59:03.023Z,0.60
2018-07-17T01:01:36.906Z,0.60
2018-07-17T01:04:11.650Z,0.60
2018-07-17T01:06:45.470Z,0.50
2018-07-17T01:09:19.500Z,0.60
2018-07-17T01:11:53.430Z,0.60
2018-07-17T01:14:21.638Z,0.60
2018-07-17T01:16:50.656Z,0.60
2018-07-17T01:19:18.861Z,0.60
2018-07-17T01:21:47.081Z,0.60
2018-07-17T01:24:16.055Z,0.60
2018-07-17T01:26:44.278Z,0.60
2018-07-17T01:29:12.532Z,0.60
2018-07-17T01:31:40.739Z,0.60
2018-07-17T01:34:08.991Z,0.60
2018-07-17T01:36:37.214Z,0.60
2018-07-17T01:39:05.461Z,0.50
2018-07-17T01:41:33.681Z,0.60
2018-07-17T01:44:01.930Z,0.60
2018-07-17T01:46:30.184Z,0.60
2018-07-17T01:48:58.422Z,0.60
2018-07-17T01:51:26.650Z,0.60
2018-07-17T01:53:54.902Z,0.60
2018-07-17T01:56:23.878Z,0.60
2018-07-17T01:58:52.896Z,0.60
2018-07-17T02:01:21.104Z,0.60
2018-07-17T02:03:49.367Z,0.60
2018-07-17T02:06:17.632Z,0.60
2018-07-17T02:08:45.865Z,0.60
2018-07-17T02:11:14.118Z,0.50
2018-07-17T02:13:42.368Z,0.50
2018-07-17T02:16:10.620Z,0.60
2018-07-17T02:18:39.598Z,0.60
2018-07-17T02:21:08.580Z,0.60
2018-07-17T02:23:36.860Z,0.57
2018-07-17T02:26:05.099Z,0.60
2018-07-17T02:28:33.349Z,0.60
2018-07-17T02:31:01.590Z,0.60
2018-07-17T02:33:29.803Z,0.60
2018-07-17T02:35:58.061Z,0.60
2018-07-17T02:38:27.077Z,0.60
2018-07-17T02:40:55.297Z,0.60
2018-07-17T02:43:23.567Z,0.60
2018-07-17T02:45:51.813Z,0.60
2018-07-17T02:48:20.030Z,0.60
2018-07-17T02:50:48.227Z,0.60
2018-07-17T02:53:17.225Z,0.60
2018-07-17T02:55:46.241Z,0.60
2018-07-17T02:58:14.492Z,0.60
2018-07-17T03:00:42.697Z,0.60
2018-07-17T03:03:10.968Z,0.60
2018-07-17T03:05:39.163Z,0.60
2018-07-17T03:08:07.433Z,0.60
2018-07-17T03:10:35.680Z,0.60
2018-07-17T03:13:03.887Z,0.60
2018-07-17T03:15:32.088Z,0.60
2018-07-17T03:18:00.359Z,0.60
2018-07-17T03:20:28.572Z,0.60
2018-07-17T03:22:56.784Z,0.60
2018-07-17T03:25:25.041Z,0.60
2018-07-17T03:27:54.035Z,0.60
2018-07-17T03:30:23.051Z,0.60
2018-07-17T03:32:51.261Z,0.60
2018-07-17T03:35:19.477Z,0.60
2018-07-17T03:37:48.499Z,0.60
2018-07-17T03:40:16.705Z,0.60
2018-07-17T03:42:44.923Z,0.60
2018-07-17T03:45:13.902Z,0.70
2018-07-17T03:47:42.135Z,0.60
2018-07-17T03:50:10.343Z,0.60
2018-07-17T03:52:38.599Z,0.60
2018-07-17T03:55:06.809Z,0.60
2018-07-17T03:57:35.083Z,0.60
2018-07-17T04:00:03.317Z,0.60
2018-07-17T04:02:31.581Z,0.60
2018-07-17T04:04:59.787Z,0.60
2018-07-17T04:07:28.059Z,0.60
2018-07-17T04:09:56.254Z,0.60
2018-07-17T04:12:24.518Z,0.60
2018-07-17T04:14:52.760Z,0.60
2018-07-17T04:17:20.976Z,0.60
2018-07-17T04:19:49.236Z,0.60
2018-07-17T04:22:17.509Z,0.60
2018-07-17T04:24:45.780Z,0.60
2018-07-17T04:27:13.989Z,0.60
2018-07-17T04:29:42.307Z,0.60
2018-07-17T04:32:10.503Z,0.60
2018-07-17T04:34:38.726Z,0.60
2018-07-17T04:37:06.969Z,0.60
2018-07-17T04:39:35.204Z,0.60
2018-07-17T04:42:04.218Z,0.60
2018-07-17T04:44:32.437Z,0.60
2018-07-17T04:47:00.700Z,0.57
2018-07-17T04:49:28.949Z,0.60
2018-07-17T04:51:57.203Z,0.60
2018-07-17T04:54:26.228Z,0.60
2018-07-17T04:56:54.434Z,0.60
2018-07-17T04:59:22.660Z,0.60
2018-07-17T05:01:50.893Z,0.60
2018-07-17T05:04:19.136Z,0.60
2018-07-17T05:06:47.346Z,0.60
2018-07-17T05:09:15.621Z,0.60
2018-07-17T05:11:43.887Z,0.60
2018-07-17T05:14:12.137Z,0.60
2018-07-17T05:16:40.337Z,0.60
2018-07-17T05:19:08.599Z,0.60
2018-07-17T05:21:36.814Z,0.60
2018-07-17T05:24:05.079Z,0.60
2018-07-17T05:26:33.289Z,0.53
2018-07-17T05:29:01.597Z,0.60
2018-07-17T05:31:29.767Z,0.60
2018-07-17T05:33:57.995Z,0.60
2018-07-17T05:36:26.200Z,0.60
2018-07-17T05:38:54.464Z,0.60
2018-07-17T05:41:23.431Z,0.60
2018-07-17T05:43:51.664Z,0.60
2018-07-17T05:46:19.886Z,0.60
2018-07-17T05:48:48.101Z,0.60
2018-07-17T05:51:16.360Z,0.60
2018-07-17T05:53:45.350Z,0.60
2018-07-17T05:56:14.324Z,0.60
2018-07-17T05:58:42.574Z,0.60
2018-07-17T06:01:10.825Z,0.60
2018-07-17T06:03:39.109Z,0.60
2018-07-17T06:06:07.360Z,0.60
2018-07-17T06:08:35.619Z,0.60
2018-07-17T06:11:03.881Z,0.60
2018-07-17T06:13:32.132Z,0.60
2018-07-17T06:16:00.376Z,0.60
2018-07-17T06:18:28.576Z,0.50
2018-07-17T06:20:56.863Z,0.50
2018-07-17T06:23:25.053Z,0.57
2018-07-17T06:25:53.318Z,0.50
2018-07-17T06:28:21.575Z,0.53
2018-07-17T06:30:49.828Z,0.60
2018-07-17T06:33:18.840Z,0.60
2018-07-17T06:35:47.094Z,0.50
2018-07-17T06:38:15.310Z,0.50
2018-07-17T06:40:43.563Z,0.60
2018-07-17T06:43:11.802Z,0.60
2018-07-17T06:45:40.014Z,0.60
2018-07-17T06:48:08.267Z,0.47
2018-07-17T06:50:36.636Z,0.60
2018-07-17T06:53:04.724Z,0.50
2018-07-17T06:55:33.712Z,0.50
2018-07-17T06:58:02.736Z,0.60
2018-07-17T07:00:31.759Z,0.53
2018-07-17T07:02:59.975Z,0.60
2018-07-17T07:05:28.235Z,0.50
2018-07-17T07:07:56.493Z,0.57
2018-07-17T07:10:24.717Z,0.50
2018-07-17T07:12:52.923Z,0.60
2018-07-17T07:15:21.192Z,0.60
2018-07-17T07:17:49.410Z,0.50
2018-07-17T07:20:17.678Z,0.60
2018-07-17T07:22:45.927Z,0.50
2018-07-17T07:25:14.147Z,0.50
2018-07-17T07:27:42.360Z,0.50
2018-07-17T07:30:10.591Z,0.50
2018-07-17T07:32:38.825Z,0.50
2018-07-17T07:35:07.089Z,0.50
2018-07-17T07:37:36.053Z,0.60
2018-07-17T07:40:04.296Z,0.50
2018-07-17T07:42:32.545Z,0.50
2018-07-17T07:45:00.803Z,0.50
2018-07-17T07:47:29.762Z,0.47
2018-07-17T07:49:58.060Z,0.50
2018-07-17T07:52:26.298Z,0.50
2018-07-17T07:54:54.555Z,0.40
2018-07-17T07:57:23.560Z,0.50
2018-07-17T07:59:51.809Z,0.50
2018-07-17T08:02:20.781Z,0.40
2018-07-17T08:04:49.821Z,0.50
2018-07-17T08:07:18.064Z,0.50
2018-07-17T08:09:47.103Z,0.50
2018-07-17T08:12:15.363Z,0.50
2018-07-17T08:14:43.616Z,0.50
2018-07-17T08:17:12.616Z,0.40
2018-07-17T08:19:40.839Z,0.47
2018-07-17T08:22:09.106Z,0.43
2018-07-17T08:24:37.366Z,0.50
2018-07-17T08:27:05.615Z,0.47
2018-07-17T08:29:34.696Z,0.40
2018-07-17T08:32:02.886Z,0.50
2018-07-17T08:34:31.904Z,0.50
2018-07-17T08:37:00.110Z,0.50
2018-07-17T08:39:28.355Z,0.50
2018-07-17T08:41:56.571Z,0.40
2018-07-17T08:44:24.831Z,0.40
2018-07-17T08:46:53.052Z,0.50
2018-07-17T08:49:22.046Z,0.50
2018-07-17T08:51:51.086Z,0.40
2018-07-17T08:54:19.309Z,0.50
2018-07-17T08:56:47.569Z,0.40
2018-07-17T08:59:15.831Z,0.40
2018-07-17T09:01:44.048Z,0.40
2018-07-17T09:04:13.031Z,0.40
2018-07-17T09:06:41.307Z,0.40
2018-07-17T09:09:09.618Z,0.50
2018-07-17T09:11:38.643Z,0.40
2018-07-17T09:14:06.881Z,0.50
2018-07-17T09:16:35.919Z,0.50
2018-07-17T09:19:04.175Z,0.40
2018-07-17T09:21:32.432Z,0.50
2018-07-17T09:24:01.440Z,0.50
2018-07-17T09:26:29.669Z,0.50
2018-07-17T09:28:57.919Z,0.40
2018-07-17T09:31:26.147Z,0.40
2018-07-17T09:33:55.107Z,0.40
2018-07-17T09:36:23.399Z,0.40
2018-07-17T09:38:51.636Z,0.50
2018-07-17T09:41:19.847Z,0.50
2018-07-17T09:43:48.095Z,0.50
2018-07-17T09:46:16.312Z,0.50
2018-07-17T09:48:45.337Z,0.50
2018-07-17T09:51:13.565Z,0.40
2018-07-17T09:53:41.780Z,0.40
2018-07-17T09:56:10.049Z,0.50
2018-07-17T09:58:40.185Z,0.50
2018-07-17T10:01:09.196Z,0.30
2018-07-17T10:03:37.401Z,0.40
2018-07-17T10:06:05.669Z,0.50
2018-07-17T10:08:33.926Z,0.40
2018-07-17T10:11:02.175Z,0.40
2018-07-17T10:13:31.139Z,0.50
2018-07-17T10:15:59.434Z,0.40
2018-07-17T10:18:27.637Z,0.50
2018-07-17T10:20:55.871Z,0.50
2018-07-17T10:23:24.123Z,0.40
2018-07-17T10:25:52.393Z,0.43
2018-07-17T10:28:20.628Z,0.33
2018-07-17T10:30:49.662Z,0.50
2018-07-17T10:33:17.863Z,0.43
2018-07-17T10:35:46.084Z,0.50
2018-07-17T10:38:14.295Z,0.40
2018-07-17T10:40:42.562Z,0.40
2018-07-17T10:43:10.814Z,0.40
2018-07-17T10:45:39.024Z,0.40
2018-07-17T10:48:07.275Z,0.40
2018-07-17T10:50:35.504Z,0.40
2018-07-17T10:53:03.731Z,0.40
2018-07-17T10:55:31.955Z,0.50
2018-07-17T10:58:00.210Z,0.50
2018-07-17T11:00:28.423Z,0.50
2018-07-17T11:02:57.442Z,0.50
2018-07-17T11:05:25.710Z,0.40
2018-07-17T11:07:53.912Z,0.40
2018-07-17T11:10:22.195Z,0.43
2018-07-17T11:12:50.390Z,0.50
2018-07-17T11:15:18.671Z,0.40
2018-07-17T11:17:46.931Z,0.40
2018-07-17T11:20:15.202Z,0.40
2018-07-17T11:22:43.396Z,0.40
2018-07-17T11:25:11.677Z,0.40
2018-07-17T11:27:39.915Z,0.40
2018-07-17T11:30:08.172Z,0.40
2018-07-17T11:32:36.387Z,0.40
2018-07-17T11:35:04.664Z,0.40
2018-07-17T11:37:32.872Z,0.50
2018-07-17T11:40:01.150Z,0.40
2018-07-17T11:42:29.355Z,0.43
2018-07-17T11:44:57.596Z,0.50
2018-07-17T11:47:25.840Z,0.40
2018-07-17T11:49:54.108Z,0.50
2018-07-17T11:52:22.387Z,0.40
2018-07-17T11:54:50.623Z,0.40
2018-07-17T11:57:19.627Z,0.50
2018-07-17T11:59:48.599Z,0.50
2018-07-17T12:02:16.977Z,0.40
2018-07-17T12:04:45.174Z,0.40
2018-07-17T12:07:13.453Z,0.50
2018-07-17T12:09:42.423Z,0.40
2018-07-17T12:12:10.664Z,0.40
2018-07-17T12:14:38.927Z,0.50
2018-07-17T12:17:07.140Z,0.40
2018-07-17T12:19:35.360Z,0.40
2018-07-17T12:22:03.643Z,0.40
2018-07-17T12:24:31.895Z,0.50
2018-07-17T12:27:00.884Z,0.50
2018-07-17T12:29:29.870Z,0.50
2018-07-17T12:31:58.182Z,0.50
2018-07-17T12:34:27.144Z,0.50
2018-07-17T12:36:56.161Z,0.50
2018-07-17T12:39:25.155Z,0.50
2018-07-17T12:41:53.397Z,0.40
2018-07-17T12:44:21.640Z,0.43
2018-07-17T12:46:49.834Z,0.50
2018-07-17T12:49:18.046Z,0.43
2018-07-17T12:51:47.082Z,0.45
2018-07-17T12:54:15.345Z,0.40
2018-07-17T12:56:43.572Z,0.40
2018-07-17T12:59:11.792Z,0.40
2018-07-17T13:01:40.026Z,0.50
2018-07-17T13:04:08.280Z,0.50
2018-07-17T13:06:36.507Z,0.40
2018-07-17T13:09:04.778Z,0.50
2018-07-17T13:11:32.989Z,0.50
2018-07-17T13:14:01.247Z,0.43
2018-07-17T13:16:30.227Z,0.50
2018-07-17T13:18:59.212Z,0.50
2018-07-17T13:21:28.249Z,0.40
2018-07-17T13:23:56.459Z,0.40
2018-07-17T13:26:24.736Z,0.45
2018-07-17T13:28:52.975Z,0.50
2018-07-17T13:31:21.202Z,0.45
2018-07-17T13:33:49.420Z,0.50
2018-07-17T13:36:17.650Z,0.50
2018-07-17T13:38:45.897Z,0.50
2018-07-17T13:41:14.118Z,0.50
2018-07-17T13:43:43.106Z,0.43
2018-07-17T13:46:11.317Z,0.40
2018-07-17T13:48:39.544Z,0.47
2018-07-17T13:51:07.819Z,0.50
2018-07-17T13:53:36.020Z,0.55
2018-07-17T13:56:04.267Z,0.50
2018-07-17T13:58:32.514Z,0.50
2018-07-17T14:01:00.740Z,0.50
2018-07-17T14:03:28.961Z,0.50
2018-07-17T14:05:57.222Z,0.57
2018-07-17T14:08:25.449Z,0.60
2018-07-17T14:10:53.746Z,0.57
2018-07-17T14:13:21.944Z,0.50
2018-07-17T14:15:50.212Z,0.57
2018-07-17T14:18:19.184Z,0.57
2018-07-17T14:20:47.442Z,0.60
2018-07-17T14:23:15.697Z,0.57
2018-07-17T14:25:43.906Z,0.50
2018-07-17T14:28:12.180Z,0.60
2018-07-17T14:30:40.477Z,0.60
2018-07-17T14:33:08.767Z,0.60
2018-07-17T14:35:36.961Z,0.50
2018-07-17T14:38:05.220Z,0.50
2018-07-17T14:40:34.203Z,0.50
2018-07-17T14:43:03.226Z,0.50
2018-07-17T14:45:31.482Z,0.60
2018-07-17T14:47:59.716Z,0.50
2018-07-17T14:50:28.617Z,0.60
2018-07-17T14:52:56.870Z,0.50
2018-07-17T14:55:25.137Z,0.57
2018-07-17T14:57:53.496Z,0.50
2018-07-17T15:00:22.535Z,0.50
2018-07-17T15:02:50.785Z,0.52
2018-07-17T15:05:19.066Z,0.50
2018-07-17T15:07:47.314Z,0.50
2018-07-17T15:10:15.521Z,0.50
2018-07-17T15:12:43.791Z,0.60
2018-07-17T15:15:11.996Z,0.50
2018-07-17T15:17:40.274Z,0.50
2018-07-17T15:20:09.117Z,0.60
2018-07-17T15:22:38.162Z,0.60
2018-07-17T15:25:06.366Z,0.50
2018-07-17T15:27:35.360Z,0.50
2018-07-17T15:30:04.393Z,0.50
2018-07-17T15:32:32.634Z,0.40
2018-07-17T15:35:01.706Z,0.50
2018-07-17T15:37:29.912Z,0.50
2018-07-17T15:39:58.899Z,0.50
2018-07-17T15:42:27.933Z,0.50
2018-07-17T15:44:56.196Z,0.50
2018-07-17T15:47:26.361Z,0.50
2018-07-17T15:49:54.589Z,0.50
2018-07-17T15:52:23.646Z,0.43
2018-07-17T15:54:51.988Z,0.50
2018-07-17T15:57:20.213Z,0.50
2018-07-17T15:59:48.454Z,0.50
2018-07-17T16:02:16.657Z,0.50
2018-07-17T16:04:44.921Z,0.50
2018-07-17T16:07:13.165Z,0.50
2018-07-17T16:09:41.421Z,0.50
2018-07-17T16:12:10.467Z,0.50
2018-07-17T16:14:38.710Z,0.57
2018-07-17T16:17:06.973Z,0.50
2018-07-17T16:19:35.945Z,0.50
2018-07-17T16:22:04.955Z,0.50
2018-07-17T16:24:33.928Z,0.50
2018-07-17T16:27:02.196Z,0.50
2018-07-17T16:29:30.412Z,0.50
2018-07-17T16:31:58.703Z,0.50
2018-07-17T16:34:26.951Z,0.60
2018-07-17T16:36:55.989Z,0.50
2018-07-17T16:39:24.220Z,0.50
2018-07-17T16:41:53.267Z,0.60
2018-07-17T16:44:21.466Z,0.50
2018-07-17T16:46:49.724Z,0.47
2018-07-17T16:49:17.997Z,0.60
2018-07-17T16:51:46.255Z,0.50
2018-07-17T16:54:14.529Z,0.50
2018-07-17T16:56:42.738Z,0.50
2018-07-17T16:59:10.946Z,0.50
2018-07-17T17:01:39.949Z,0.50
2018-07-17T17:04:08.947Z,0.52
2018-07-17T17:06:38.019Z,0.57
2018-07-17T17:09:06.309Z,0.50
2018-07-17T17:11:34.509Z,0.50
2018-07-17T17:14:02.757Z,0.47
2018-07-17T17:16:31.747Z,0.47
2018-07-17T17:19:00.730Z,0.50
2018-07-17T17:21:28.959Z,0.50
2018-07-17T17:23:57.266Z,0.40
2018-07-17T17:26:25.404Z,0.50
2018-07-17T17:28:53.667Z,0.40
2018-07-17T17:31:22.671Z,0.50
2018-07-17T17:33:50.918Z,0.40
2018-07-17T17:36:19.173Z,0.40
2018-07-17T17:38:47.363Z,0.32
2018-07-17T17:41:16.364Z,0.40
2018-07-17T17:43:45.373Z,0.40
2018-07-17T17:46:14.400Z,0.40
2018-07-17T17:48:42.608Z,0.45
2018-07-17T17:51:10.848Z,0.40
2018-07-17T17:53:39.060Z,0.47
2018-07-17T17:56:07.333Z,0.40
2018-07-17T17:58:35.588Z,0.40
2018-07-17T18:01:03.840Z,0.40
2018-07-17T18:03:32.087Z,0.40
2018-07-17T18:06:01.083Z,0.30
2018-07-17T18:08:30.095Z,0.40
2018-07-17T18:10:59.082Z,0.50
2018-07-17T18:13:28.064Z,0.37
2018-07-17T18:15:57.064Z,0.40
2018-07-17T18:18:25.315Z,0.40
2018-07-17T18:20:53.560Z,0.40
2018-07-17T18:23:21.820Z,0.40
2018-07-17T18:25:50.042Z,0.40
2018-07-17T18:28:18.314Z,0.40
2018-07-17T18:30:46.595Z,0.40
2018-07-17T18:33:14.799Z,0.40
2018-07-17T18:35:43.820Z,0.40
2018-07-17T18:38:12.827Z,0.40
2018-07-17T18:40:41.109Z,0.40
2018-07-17T18:43:09.377Z,0.40
2018-07-17T18:45:37.627Z,0.50
2018-07-17T18:48:06.688Z,0.40
2018-07-17T18:50:34.960Z,0.43
2018-07-17T18:53:03.298Z,0.40
2018-07-17T18:55:31.524Z,0.40
2018-07-17T18:57:59.792Z,0.40
2018-07-17T19:00:28.003Z,0.40
2018-07-17T19:02:57.019Z,0.40
2018-07-17T19:05:25.243Z,0.40
2018-07-17T19:07:53.512Z,0.40
2018-07-17T19:10:21.716Z,0.40
2018-07-17T19:12:50.833Z,0.40
2018-07-17T19:15:19.861Z,0.40
2018-07-17T19:17:48.121Z,0.40
2018-07-17T19:20:16.378Z,0.50
2018-07-17T19:22:45.381Z,0.40
2018-07-17T19:25:13.608Z,0.40
2018-07-17T19:27:41.834Z,0.40
2018-07-17T19:30:10.169Z,0.40
2018-07-17T19:32:38.430Z,0.40
2018-07-17T19:35:06.635Z,0.50
2018-07-17T19:37:34.900Z,0.40
2018-07-17T19:40:03.377Z,0.50
2018-07-17T19:42:31.658Z,0.40
2018-07-17T19:44:59.903Z,0.40
2018-07-17T19:47:28.205Z,0.40
2018-07-17T19:49:56.354Z,0.43
2018-07-17T19:52:24.624Z,0.50
2018-07-17T19:54:52.812Z,0.40
2018-07-17T19:57:21.102Z,0.40
2018-07-17T19:59:49.372Z,0.40
2018-07-17T20:02:17.627Z,0.40
2018-07-17T20:04:45.856Z,0.50
2018-07-17T20:07:14.109Z,0.40
2018-07-17T20:09:42.334Z,0.40
2018-07-17T20:12:11.334Z,0.40
2018-07-17T20:14:39.606Z,0.40
2018-07-17T20:17:07.842Z,0.50
2018-07-17T20:19:36.083Z,0.50
2018-07-17T20:22:04.315Z,0.40
2018-07-17T20:24:32.585Z,0.50
2018-07-17T20:27:00.817Z,0.40
2018-07-17T20:29:29.068Z,0.40
2018-07-17T20:31:58.256Z,0.50
2018-07-17T20:34:26.489Z,0.43
2018-07-17T20:36:55.488Z,0.40
2018-07-17T20:39:23.745Z,0.40
2018-07-17T20:41:51.990Z,0.43
2018-07-17T20:44:20.197Z,0.40
2018-07-17T20:46:48.425Z,0.40
2018-07-17T20:49:17.437Z,0.50
2018-07-17T20:51:45.696Z,0.50
2018-07-17T20:54:13.949Z,0.50
2018-07-17T20:56:42.212Z,0.50
2018-07-17T20:59:10.428Z,0.47
2018-07-17T21:01:39.463Z,0.50
2018-07-17T21:04:07.678Z,0.40
2018-07-17T21:06:35.902Z,0.40
2018-07-17T21:09:04.165Z,0.40
2018-07-17T21:11:33.167Z,0.43
2018-07-17T21:14:01.432Z,0.40
2018-07-17T21:16:29.688Z,0.40
2018-07-17T21:18:57.932Z,0.40
2018-07-17T21:21:26.195Z,0.40
2018-07-17T21:23:54.448Z,0.40
2018-07-17T21:26:23.482Z,0.40
2018-07-17T21:28:51.743Z,0.40
2018-07-17T21:31:19.941Z,0.40
2018-07-17T21:33:48.191Z,0.47
2018-07-17T21:36:16.414Z,0.40
2018-07-17T21:38:44.659Z,0.40
2018-07-17T21:41:12.883Z,0.40
2018-07-17T21:43:41.864Z,0.47
2018-07-17T21:46:10.085Z,0.40
2018-07-17T21:48:38.333Z,0.50
2018-07-17T21:51:07.357Z,0.40
2018-07-17T21:53:35.603Z,0.40
2018-07-17T21:56:03.807Z,0.40
2018-07-17T21:58:32.077Z,0.50
2018-07-17T22:01:00.271Z,0.40
2018-07-17T22:03:28.499Z,0.40
2018-07-17T22:05:57.480Z,0.40
2018-07-17T22:08:25.748Z,0.40
2018-07-17T22:10:53.949Z,0.50
2018-07-17T22:13:22.987Z,0.50
2018-07-17T22:15:51.189Z,0.50
2018-07-17T22:18:19.471Z,0.40
2018-07-17T22:20:47.673Z,0.40
2018-07-17T22:23:16.682Z,0.40
2018-07-17T22:25:45.654Z,0.40
2018-07-17T22:28:14.646Z,0.40
2018-07-17T22:30:42.865Z,0.50
2018-07-17T22:33:11.085Z,0.50
2018-07-17T22:35:39.304Z,0.50
2018-07-17T22:38:07.580Z,0.50
2018-07-17T22:40:35.831Z,0.40
2018-07-17T22:43:04.089Z,0.50
2018-07-17T22:45:32.327Z,0.50
2018-07-17T22:48:00.579Z,0.53
2018-07-17T22:50:29.596Z,0.50
2018-07-17T22:52:57.812Z,0.50
2018-07-17T22:55:26.064Z,0.50
2018-07-17T22:57:54.280Z,0.40
2018-07-17T23:00:23.264Z,0.40
2018-07-17T23:02:51.526Z,0.50
2018-07-17T23:05:19.759Z,0.50
2018-07-17T23:07:48.020Z,0.50
2018-07-17T23:10:16.989Z,0.50
2018-07-17T23:12:45.258Z,0.50
2018-07-17T23:15:13.464Z,0.50
2018-07-17T23:17:42.455Z,0.57
2018-07-17T23:20:11.432Z,0.53
2018-07-17T23:22:39.722Z,0.50
2018-07-17T23:25:07.979Z,0.50
2018-07-17T23:27:36.244Z,0.40
2018-07-17T23:30:04.524Z,0.50
2018-07-17T23:32:32.804Z,0.60
2018-07-17T23:35:01.067Z,0.50
2018-07-17T23:37:29.339Z,0.60
2018-07-17T23:39:57.603Z,0.40
2018-07-17T23:42:25.882Z,0.50
2018-07-17T23:44:54.147Z,0.50
2018-07-17T23:47:22.413Z,0.50
2018-07-17T23:49:52.243Z,0.50
2018-07-17T23:52:20.539Z,0.50
2018-07-17T23:54:48.800Z,0.53
2018-07-17T23:57:17.087Z,0.50
2018-07-17T23:59:45.351Z,0.60
